Briefing drone pour Saint-pierre-d'albigny

Rechercher une autre localisation

Conditions de vol :


Nous sommes le : Lundi 27 septembre 2021
Il est 21:49 UTC (23:49 LT)

Lever de soleil : 05:02 UTC (07:02 LT)
Coucher de soleil : 17:50 UTC (19:50 LT)

Météo

L'essentiel des conditions de vol

VIGILANCE MÉTÉO FRANCE - Savoie (73)
Pas de vigilances particulieres
METAR de LFLB
LFLB 272130Z AUTO 25002KT 9999 OVC054/// ///TCU 17/16 Q1023

Date d'émission: 27/09/2021
Heure d'émission: 21:30 UTC
Vent: 250° pour 2 KT (4 km/h)
Visibilité horizontale: > 10 km
Plafond :
- Couvert à 5400ft (1646m)
Température: 17 °C
Point de rosée: 16 °C
Humidité: 94%
Pression (QNH): 1023 hPa
TAF de LFLB
LFLB 271904Z 2719/2815 CNL

Conditions prévues :

Heure d'émission : Bulletin éffectué le 27 à 19:00 UTC
Prévision : Valide du 27 a 19:00 UTC au 28 a 15:00 UTC
Nuages : à 0ft (0 m)
WEBCAM POUR SAINT-PIERRE-D'ALBIGNY

Réglementation

Voler en sécurité

CARTES AERONAUTIQUE 1/500.000
CARTES VAC (LFLB)
SUP AIP




Chargement des AIP...
NOTAM (SAINT-PIERRE-D'ALBIGNY + Terrain à proximité / FIR )




Chargement des NOTAMS...
CONTACT PREFECTURE 73


Avertissement : Les données mises à disposition sont indicatives. Oxygène Drone ne pourra être tenu responsable de dégâts causés aux biens et aux personnes.